sensor_id;sensor_type;location;lat;lon;timestamp;pressure;altitude;pressure_sealevel;temperature;humidity
12221;BME280;6173;42.024;23.096;2022-09-03T00:00:29;96579.78;;;19.43;100.00
12221;BME280;6173;42.024;23.096;2022-09-03T00:03:03;96583.19;;;19.55;100.00
12221;BME280;6173;42.024;23.096;2022-09-03T00:05:36;96578.34;;;19.61;100.00
12221;BME280;6173;42.024;23.096;2022-09-03T00:08:09;96578.72;;;19.59;100.00
12221;BME280;6173;42.024;23.096;2022-09-03T00:10:44;96552.63;;;19.32;100.00
12221;BME280;6173;42.024;23.096;2022-09-03T00:13:13;96577.34;;;19.53;100.00
12221;BME280;6173;42.024;23.096;2022-09-03T00:15:41;96570.78;;;19.51;100.00
12221;BME280;6173;42.024;23.096;2022-09-03T00:18:13;96542.78;;;19.36;100.00
12221;BME280;6173;42.024;23.096;2022-09-03T00:20:45;96578.94;;;19.54;100.00
12221;BME280;6173;42.024;23.096;2022-09-03T00:23:18;96558.78;;;19.32;100.00
12221;BME280;6173;42.024;23.096;2022-09-03T00:25:51;96562.88;;;19.42;100.00
12221;BME280;6173;42.024;23.096;2022-09-03T00:28:23;96561.69;;;19.40;100.00
12221;BME280;6173;42.024;23.096;2022-09-03T00:30:58;96557.09;;;19.40;100.00
12221;BME280;6173;42.024;23.096;2022-09-03T00:33:29;96549.97;;;19.48;100.00
12221;BME280;6173;42.024;23.096;2022-09-03T00:36:04;96525.41;;;19.18;100.00
12221;BME280;6173;42.024;23.096;2022-09-03T00:38:37;96537.91;;;19.26;100.00
12221;BME280;6173;42.024;23.096;2022-09-03T00:41:08;96543.59;;;19.24;100.00
12221;BME280;6173;42.024;23.096;2022-09-03T00:43:51;96509.28;;;19.02;100.00
12221;BME280;6173;42.024;23.096;2022-09-03T00:46:31;96549.19;;;19.31;100.00
12221;BME280;6173;42.024;23.096;2022-09-03T00:49:18;96553.78;;;19.31;100.00
12221;BME280;6173;42.024;23.096;2022-09-03T00:51:55;96541.53;;;19.18;100.00
12221;BME280;6173;42.024;23.096;2022-09-03T00:54:34;96552.78;;;19.23;100.00
12221;BME280;6173;42.024;23.096;2022-09-03T00:57:17;96542.50;;;19.25;100.00
12221;BME280;6173;42.024;23.096;2022-09-03T00:59:56;96550.47;;;19.37;100.00
12221;BME280;6173;42.024;23.096;2022-09-03T01:02:30;96552.53;;;19.28;100.00
12221;BME280;6173;42.024;23.096;2022-09-03T01:05:06;96552.47;;;19.25;100.00
12221;BME280;6173;42.024;23.096;2022-09-03T01:07:39;96554.94;;;19.18;100.00
12221;BME280;6173;42.024;23.096;2022-09-03T01:10:20;96556.31;;;19.11;100.00
12221;BME280;6173;42.024;23.096;2022-09-03T01:12:55;96568.28;;;19.14;100.00
12221;BME280;6173;42.024;23.096;2022-09-03T01:15:30;96566.03;;;19.16;100.00
12221;BME280;6173;42.024;23.096;2022-09-03T01:18:15;96573.88;;;19.09;100.00
12221;BME280;6173;42.024;23.096;2022-09-03T01:20:54;96573.75;;;19.18;100.00
12221;BME280;6173;42.024;23.096;2022-09-03T01:23:40;96574.59;;;19.06;100.00
12221;BME280;6173;42.024;23.096;2022-09-03T01:26:29;96581.22;;;18.96;100.00
12221;BME280;6173;42.024;23.096;2022-09-03T01:29:10;96595.00;;;18.95;100.00
12221;BME280;6173;42.024;23.096;2022-09-03T01:31:49;96596.34;;;18.89;100.00
12221;BME280;6173;42.024;23.096;2022-09-03T01:34:23;96602.28;;;18.82;100.00
12221;BME280;6173;42.024;23.096;2022-09-03T01:37:02;96593.59;;;18.73;100.00
12221;BME280;6173;42.024;23.096;2022-09-03T01:39:37;96597.59;;;18.79;100.00
12221;BME280;6173;42.024;23.096;2022-09-03T01:42:17;96597.81;;;18.74;100.00
12221;BME280;6173;42.024;23.096;2022-09-03T01:45:00;96602.00;;;18.71;100.00
12221;BME280;6173;42.024;23.096;2022-09-03T01:47:43;96590.00;;;18.69;100.00
12221;BME280;6173;42.024;23.096;2022-09-03T01:50:22;96623.09;;;18.85;100.00
12221;BME280;6173;42.024;23.096;2022-09-03T01:52:55;96613.03;;;18.82;100.00
12221;BME280;6173;42.024;23.096;2022-09-03T01:55:30;96618.81;;;18.96;100.00
12221;BME280;6173;42.024;23.096;2022-09-03T01:58:01;96608.31;;;18.91;100.00
12221;BME280;6173;42.024;23.096;2022-09-03T02:00:34;96618.31;;;19.06;100.00
12221;BME280;6173;42.024;23.096;2022-09-03T02:03:06;96616.53;;;18.98;100.00
12221;BME280;6173;42.024;23.096;2022-09-03T02:05:33;96578.81;;;18.67;100.00
12221;BME280;6173;42.024;23.096;2022-09-03T02:08:04;96614.09;;;19.05;100.00
12221;BME280;6173;42.024;23.096;2022-09-03T02:10:37;96616.66;;;19.02;100.00
12221;BME280;6173;42.024;23.096;2022-09-03T02:13:07;96609.38;;;19.02;100.00
12221;BME280;6173;42.024;23.096;2022-09-03T02:15:38;96609.34;;;19.15;100.00
12221;BME280;6173;42.024;23.096;2022-09-03T02:18:09;96613.59;;;19.16;100.00
12221;BME280;6173;42.024;23.096;2022-09-03T02:20:38;96610.22;;;19.19;100.00
12221;BME280;6173;42.024;23.096;2022-09-03T02:23:05;96603.53;;;19.13;100.00
12221;BME280;6173;42.024;23.096;2022-09-03T02:25:35;96601.81;;;18.92;100.00
12221;BME280;6173;42.024;23.096;2022-09-03T02:28:04;96612.06;;;19.02;100.00
12221;BME280;6173;42.024;23.096;2022-09-03T02:30:32;96617.72;;;18.85;100.00
12221;BME280;6173;42.024;23.096;2022-09-03T02:33:00;96582.44;;;18.71;100.00
12221;BME280;6173;42.024;23.096;2022-09-03T02:35:27;96556.59;;;18.66;100.00
12221;BME280;6173;42.024;23.096;2022-09-03T02:37:54;96624.56;;;19.10;100.00
12221;BME280;6173;42.024;23.096;2022-09-03T02:40:21;96538.03;;;18.21;100.00
12221;BME280;6173;42.024;23.096;2022-09-03T02:42:48;96600.59;;;18.90;100.00
12221;BME280;6173;42.024;23.096;2022-09-03T02:45:23;96597.72;;;18.58;100.00
12221;BME280;6173;42.024;23.096;2022-09-03T02:47:54;96596.25;;;18.85;100.00
12221;BME280;6173;42.024;23.096;2022-09-03T02:50:23;96602.59;;;18.93;100.00
12221;BME280;6173;42.024;23.096;2022-09-03T02:52:50;96629.84;;;19.07;100.00
12221;BME280;6173;42.024;23.096;2022-09-03T02:55:18;96630.50;;;19.04;100.00
12221;BME280;6173;42.024;23.096;2022-09-03T02:57:45;96629.06;;;19.06;100.00
12221;BME280;6173;42.024;23.096;2022-09-03T03:00:13;96637.53;;;19.08;100.00
12221;BME280;6173;42.024;23.096;2022-09-03T03:02:40;96630.50;;;19.04;100.00
12221;BME280;6173;42.024;23.096;2022-09-03T03:05:08;96627.50;;;19.05;100.00
12221;BME280;6173;42.024;23.096;2022-09-03T03:07:41;96630.72;;;19.11;100.00
12221;BME280;6173;42.024;23.096;2022-09-03T03:10:09;96617.88;;;19.04;100.00
12221;BME280;6173;42.024;23.096;2022-09-03T03:12:36;96613.38;;;19.08;100.00
12221;BME280;6173;42.024;23.096;2022-09-03T03:15:05;96615.75;;;19.10;100.00
12221;BME280;6173;42.024;23.096;2022-09-03T03:17:32;96620.53;;;19.04;100.00
12221;BME280;6173;42.024;23.096;2022-09-03T03:19:59;96595.56;;;18.88;100.00
12221;BME280;6173;42.024;23.096;2022-09-03T03:22:25;96610.94;;;19.03;100.00
12221;BME280;6173;42.024;23.096;2022-09-03T03:24:54;96622.22;;;19.09;100.00
12221;BME280;6173;42.024;23.096;2022-09-03T03:27:22;96621.00;;;19.06;100.00
12221;BME280;6173;42.024;23.096;2022-09-03T03:29:48;96620.22;;;19.06;100.00
12221;BME280;6173;42.024;23.096;2022-09-03T03:32:16;96621.34;;;19.05;100.00
12221;BME280;6173;42.024;23.096;2022-09-03T03:34:43;96622.22;;;19.09;100.00
12221;BME280;6173;42.024;23.096;2022-09-03T03:37:10;96606.28;;;19.00;100.00
12221;BME280;6173;42.024;23.096;2022-09-03T03:39:37;96624.28;;;19.00;100.00
12221;BME280;6173;42.024;23.096;2022-09-03T03:42:05;96629.72;;;19.03;100.00
12221;BME280;6173;42.024;23.096;2022-09-03T03:44:32;96626.72;;;19.05;100.00
12221;BME280;6173;42.024;23.096;2022-09-03T03:46:58;96629.84;;;19.07;100.00
12221;BME280;6173;42.024;23.096;2022-09-03T03:49:29;96622.91;;;19.06;100.00
12221;BME280;6173;42.024;23.096;2022-09-03T03:51:56;96629.69;;;19.16;100.00
12221;BME280;6173;42.024;23.096;2022-09-03T03:54:22;96633.06;;;19.13;100.00
12221;BME280;6173;42.024;23.096;2022-09-03T03:56:49;96618.69;;;18.93;100.00
12221;BME280;6173;42.024;23.096;2022-09-03T03:59:17;96608.81;;;18.69;100.00
12221;BME280;6173;42.024;23.096;2022-09-03T04:01:44;96642.97;;;18.96;100.00
12221;BME280;6173;42.024;23.096;2022-09-03T04:04:12;96644.22;;;18.87;100.00
12221;BME280;6173;42.024;23.096;2022-09-03T04:06:39;96645.22;;;18.82;100.00
12221;BME280;6173;42.024;23.096;2022-09-03T04:09:06;96646.91;;;18.87;100.00
12221;BME280;6173;42.024;23.096;2022-09-03T04:11:33;96644.66;;;18.89;100.00
12221;BME280;6173;42.024;23.096;2022-09-03T04:14:01;96644.66;;;18.89;100.00
12221;BME280;6173;42.024;23.096;2022-09-03T04:16:30;96651.00;;;18.96;100.00
12221;BME280;6173;42.024;23.096;2022-09-03T04:18:57;96607.56;;;18.78;100.00
12221;BME280;6173;42.024;23.096;2022-09-03T04:21:25;96625.31;;;18.95;100.00
12221;BME280;6173;42.024;23.096;2022-09-03T04:23:53;96661.81;;;19.12;100.00
12221;BME280;6173;42.024;23.096;2022-09-03T04:26:22;96655.44;;;19.17;100.00
12221;BME280;6173;42.024;23.096;2022-09-03T04:28:50;96652.97;;;19.11;100.00
12221;BME280;6173;42.024;23.096;2022-09-03T04:31:18;96662.34;;;19.18;100.00
12221;BME280;6173;42.024;23.096;2022-09-03T04:33:47;96659.13;;;19.12;100.00
12221;BME280;6173;42.024;23.096;2022-09-03T04:36:16;96660.56;;;19.22;100.00
12221;BME280;6173;42.024;23.096;2022-09-03T04:38:48;96665.81;;;19.18;100.00
12221;BME280;6173;42.024;23.096;2022-09-03T04:41:17;96669.94;;;19.28;100.00
12221;BME280;6173;42.024;23.096;2022-09-03T04:43:59;96647.38;;;19.17;100.00
12221;BME280;6173;42.024;23.096;2022-09-03T04:46:26;96678.75;;;19.28;100.00
12221;BME280;6173;42.024;23.096;2022-09-03T04:48:59;96686.50;;;19.30;100.00
12221;BME280;6173;42.024;23.096;2022-09-03T04:51:27;96682.56;;;19.27;100.00
12221;BME280;6173;42.024;23.096;2022-09-03T04:53:55;96695.22;;;19.27;100.00
12221;BME280;6173;42.024;23.096;2022-09-03T04:56:24;96718.63;;;19.26;100.00
12221;BME280;6173;42.024;23.096;2022-09-03T04:58:54;96687.31;;;19.18;100.00
12221;BME280;6173;42.024;23.096;2022-09-03T05:01:22;96709.31;;;19.24;100.00
12221;BME280;6173;42.024;23.096;2022-09-03T05:03:50;96718.84;;;19.21;100.00
12221;BME280;6173;42.024;23.096;2022-09-03T05:06:19;96719.88;;;19.17;100.00
12221;BME280;6173;42.024;23.096;2022-09-03T05:08:47;96722.31;;;19.22;100.00
12221;BME280;6173;42.024;23.096;2022-09-03T05:11:14;96722.09;;;19.27;100.00
12221;BME280;6173;42.024;23.096;2022-09-03T05:13:46;96708.00;;;19.18;100.00
12221;BME280;6173;42.024;23.096;2022-09-03T05:16:28;96715.47;;;19.24;100.00
12221;BME280;6173;42.024;23.096;2022-09-03T05:18:57;96719.63;;;19.22;100.00
12221;BME280;6173;42.024;23.096;2022-09-03T05:21:34;96712.34;;;19.22;100.00
12221;BME280;6173;42.024;23.096;2022-09-03T05:24:03;96700.59;;;19.27;100.00
12221;BME280;6173;42.024;23.096;2022-09-03T05:26:35;96715.56;;;19.40;100.00
12221;BME280;6173;42.024;23.096;2022-09-03T05:29:04;96722.91;;;19.43;100.00
12221;BME280;6173;42.024;23.096;2022-09-03T05:31:33;96618.19;;;18.75;100.00
12221;BME280;6173;42.024;23.096;2022-09-03T05:34:02;96690.25;;;19.01;100.00
12221;BME280;6173;42.024;23.096;2022-09-03T05:36:32;96721.25;;;19.38;100.00
12221;BME280;6173;42.024;23.096;2022-09-03T05:38:59;96706.81;;;19.03;100.00
12221;BME280;6173;42.024;23.096;2022-09-03T05:41:27;96723.69;;;19.44;100.00
12221;BME280;6173;42.024;23.096;2022-09-03T05:43:55;96695.88;;;19.36;100.00
12221;BME280;6173;42.024;23.096;2022-09-03T05:46:24;96695.28;;;19.43;100.00
12221;BME280;6173;42.024;23.096;2022-09-03T05:48:57;96704.66;;;19.61;100.00
12221;BME280;6173;42.024;23.096;2022-09-03T05:51:24;96727.22;;;19.72;100.00
12221;BME280;6173;42.024;23.096;2022-09-03T05:53:52;96735.91;;;19.81;100.00
12221;BME280;6173;42.024;23.096;2022-09-03T05:56:21;96733.47;;;19.76;100.00
12221;BME280;6173;42.024;23.096;2022-09-03T05:58:50;96740.63;;;19.84;100.00
12221;BME280;6173;42.024;23.096;2022-09-03T06:01:19;96692.88;;;19.66;100.00
12221;BME280;6173;42.024;23.096;2022-09-03T06:03:51;96734.56;;;20.03;100.00
12221;BME280;6173;42.024;23.096;2022-09-03T06:06:19;96735.44;;;20.07;100.00
12221;BME280;6173;42.024;23.096;2022-09-03T06:08:48;96744.56;;;20.19;100.00
12221;BME280;6173;42.024;23.096;2022-09-03T06:11:17;96726.34;;;20.28;100.00
12221;BME280;6173;42.024;23.096;2022-09-03T06:13:45;96730.25;;;20.46;100.00
12221;BME280;6173;42.024;23.096;2022-09-03T06:16:12;96721.84;;;20.32;100.00
12221;BME280;6173;42.024;23.096;2022-09-03T06:18:38;96706.31;;;20.41;100.00
12221;BME280;6173;42.024;23.096;2022-09-03T06:21:06;96733.84;;;20.66;100.00
12221;BME280;6173;42.024;23.096;2022-09-03T06:23:34;96731.50;;;20.64;100.00
12221;BME280;6173;42.024;23.096;2022-09-03T06:26:03;96712.16;;;20.59;100.00
12221;BME280;6173;42.024;23.096;2022-09-03T06:28:32;96707.50;;;20.44;100.00
12221;BME280;6173;42.024;23.096;2022-09-03T06:31:01;96736.38;;;20.59;100.00
12221;BME280;6173;42.024;23.096;2022-09-03T06:33:28;96736.44;;;20.62;100.00
12221;BME280;6173;42.024;23.096;2022-09-03T06:35:56;96732.47;;;20.56;100.00
12221;BME280;6173;42.024;23.096;2022-09-03T06:38:25;96723.25;;;20.57;100.00
12221;BME280;6173;42.024;23.096;2022-09-03T06:40:54;96712.22;;;20.62;100.00
12221;BME280;6173;42.024;23.096;2022-09-03T06:43:21;96698.22;;;20.73;100.00
12221;BME280;6173;42.024;23.096;2022-09-03T06:45:54;96651.38;;;20.42;100.00
12221;BME280;6173;42.024;23.096;2022-09-03T06:48:22;96727.56;;;21.13;100.00
12221;BME280;6173;42.024;23.096;2022-09-03T06:50:53;96775.41;;;21.00;100.00
12221;BME280;6173;42.024;23.096;2022-09-03T06:53:22;96695.53;;;21.08;100.00
12221;BME280;6173;42.024;23.096;2022-09-03T06:55:52;96726.88;;;21.16;100.00
12221;BME280;6173;42.024;23.096;2022-09-03T06:58:19;96733.72;;;21.29;100.00
12221;BME280;6173;42.024;23.096;2022-09-03T07:00:46;96727.31;;;21.53;100.00
12221;BME280;6173;42.024;23.096;2022-09-03T07:03:15;96736.66;;;21.79;100.00
12221;BME280;6173;42.024;23.096;2022-09-03T07:05:42;96676.44;;;21.32;100.00
12221;BME280;6173;42.024;23.096;2022-09-03T07:08:09;96740.31;;;22.09;100.00
12221;BME280;6173;42.024;23.096;2022-09-03T07:10:35;96737.53;;;22.06;100.00
12221;BME280;6173;42.024;23.096;2022-09-03T07:13:02;96740.41;;;21.93;100.00
12221;BME280;6173;42.024;23.096;2022-09-03T07:15:31;96736.19;;;21.96;100.00
12221;BME280;6173;42.024;23.096;2022-09-03T07:17:58;96736.97;;;22.16;100.00
12221;BME280;6173;42.024;23.096;2022-09-03T07:20:26;96736.00;;;22.28;100.00
12221;BME280;6173;42.024;23.096;2022-09-03T07:22:54;96752.34;;;22.35;100.00
12221;BME280;6173;42.024;23.096;2022-09-03T07:25:22;96747.06;;;22.42;100.00
12221;BME280;6173;42.024;23.096;2022-09-03T07:27:49;96753.78;;;22.52;100.00
12221;BME280;6173;42.024;23.096;2022-09-03T07:30:16;96741.41;;;22.51;100.00
12221;BME280;6173;42.024;23.096;2022-09-03T07:32:44;96751.59;;;22.61;100.00
12221;BME280;6173;42.024;23.096;2022-09-03T07:35:11;96754.00;;;22.66;100.00
12221;BME280;6173;42.024;23.096;2022-09-03T07:37:41;96760.72;;;22.76;100.00
12221;BME280;6173;42.024;23.096;2022-09-03T07:40:09;96740.34;;;22.55;100.00
12221;BME280;6173;42.024;23.096;2022-09-03T07:42:35;96740.44;;;22.62;100.00
12221;BME280;6173;42.024;23.096;2022-09-03T07:45:06;96760.09;;;22.86;100.00
12221;BME280;6173;42.024;23.096;2022-09-03T07:47:34;96764.56;;;23.24;100.00
12221;BME280;6173;42.024;23.096;2022-09-03T07:50:01;96756.34;;;23.17;100.00
12221;BME280;6173;42.024;23.096;2022-09-03T07:52:29;96770.97;;;23.12;100.00
12221;BME280;6173;42.024;23.096;2022-09-03T07:54:57;96764.50;;;23.20;100.00
12221;BME280;6173;42.024;23.096;2022-09-03T07:57:25;96689.59;;;22.91;100.00
12221;BME280;6173;42.024;23.096;2022-09-03T07:59:51;96775.16;;;23.66;100.00
12221;BME280;6173;42.024;23.096;2022-09-03T08:02:18;96776.56;;;23.87;100.00
12221;BME280;6173;42.024;23.096;2022-09-03T08:04:45;96772.41;;;23.93;100.00
12221;BME280;6173;42.024;23.096;2022-09-03T08:07:12;96761.59;;;23.96;100.00
12221;BME280;6173;42.024;23.096;2022-09-03T08:09:38;96764.19;;;23.86;100.00
12221;BME280;6173;42.024;23.096;2022-09-03T08:12:07;96772.47;;;23.66;100.00
12221;BME280;6173;42.024;23.096;2022-09-03T08:14:33;96761.69;;;23.70;100.00
12221;BME280;6173;42.024;23.096;2022-09-03T08:17:00;96756.00;;;23.79;100.00
12221;BME280;6173;42.024;23.096;2022-09-03T08:19:27;96755.56;;;23.77;100.00
12221;BME280;6173;42.024;23.096;2022-09-03T08:21:54;96741.78;;;23.55;100.00
12221;BME280;6173;42.024;23.096;2022-09-03T08:24:20;96771.97;;;23.61;100.00
12221;BME280;6173;42.024;23.096;2022-09-03T08:26:49;96766.88;;;23.56;100.00
12221;BME280;6173;42.024;23.096;2022-09-03T08:29:17;96759.78;;;23.44;100.00
12221;BME280;6173;42.024;23.096;2022-09-03T08:31:44;96764.63;;;23.58;100.00
12221;BME280;6173;42.024;23.096;2022-09-03T08:34:10;96762.50;;;23.74;100.00
12221;BME280;6173;42.024;23.096;2022-09-03T08:36:39;96751.97;;;23.65;100.00
12221;BME280;6173;42.024;23.096;2022-09-03T08:39:08;96707.22;;;23.41;100.00
12221;BME280;6173;42.024;23.096;2022-09-03T08:41:44;96752.06;;;23.42;100.00
12221;BME280;6173;42.024;23.096;2022-09-03T08:44:22;96735.47;;;23.14;100.00
12221;BME280;6173;42.024;23.096;2022-09-03T08:46:54;96743.13;;;23.12;100.00
12221;BME280;6173;42.024;23.096;2022-09-03T08:49:26;96743.00;;;23.01;100.00
12221;BME280;6173;42.024;23.096;2022-09-03T08:51:55;96737.47;;;23.20;100.00
12221;BME280;6173;42.024;23.096;2022-09-03T08:54:26;96738.94;;;23.14;100.00
12221;BME280;6173;42.024;23.096;2022-09-03T08:56:59;96731.56;;;23.11;100.00
12221;BME280;6173;42.024;23.096;2022-09-03T08:59:29;96733.63;;;23.21;100.00
12221;BME280;6173;42.024;23.096;2022-09-03T09:02:01;96731.56;;;23.11;100.00
12221;BME280;6173;42.024;23.096;2022-09-03T09:04:41;96730.06;;;23.44;100.00
12221;BME280;6173;42.024;23.096;2022-09-03T09:07:18;96708.94;;;23.57;100.00
12221;BME280;6173;42.024;23.096;2022-09-03T09:09:51;96753.03;;;23.91;100.00
12221;BME280;6173;42.024;23.096;2022-09-03T09:12:30;96732.03;;;24.14;100.00
12221;BME280;6173;42.024;23.096;2022-09-03T09:15:09;96712.63;;;23.71;100.00
12221;BME280;6173;42.024;23.096;2022-09-03T09:17:59;96709.00;;;23.60;100.00
12221;BME280;6173;42.024;23.096;2022-09-03T09:20:35;96734.19;;;24.02;100.00
12221;BME280;6173;42.024;23.096;2022-09-03T09:23:07;96737.22;;;24.34;100.00
12221;BME280;6173;42.024;23.096;2022-09-03T09:25:44;96722.16;;;24.33;100.00
12221;BME280;6173;42.024;23.096;2022-09-03T09:28:16;96729.56;;;24.39;100.00
12221;BME280;6173;42.024;23.096;2022-09-03T09:30:46;96717.13;;;24.79;100.00
12221;BME280;6173;42.024;23.096;2022-09-03T09:33:14;96726.03;;;24.83;100.00
12221;BME280;6173;42.024;23.096;2022-09-03T09:35:41;96721.34;;;24.73;100.00
12221;BME280;6173;42.024;23.096;2022-09-03T09:38:08;96727.31;;;25.00;100.00
12221;BME280;6173;42.024;23.096;2022-09-03T09:40:37;96746.88;;;25.27;100.00
12221;BME280;6173;42.024;23.096;2022-09-03T09:43:09;96763.22;;;24.86;100.00
12221;BME280;6173;42.024;23.096;2022-09-03T09:45:38;96731.50;;;24.39;100.00
12221;BME280;6173;42.024;23.096;2022-09-03T09:48:14;96714.97;;;24.10;100.00
12221;BME280;6173;42.024;23.096;2022-09-03T09:50:43;96757.56;;;24.54;100.00
12221;BME280;6173;42.024;23.096;2022-09-03T09:53:12;96750.38;;;24.76;100.00
12221;BME280;6173;42.024;23.096;2022-09-03T09:55:50;96749.94;;;24.67;100.00
12221;BME280;6173;42.024;23.096;2022-09-03T09:58:18;96741.63;;;24.97;100.00
12221;BME280;6173;42.024;23.096;2022-09-03T10:01:01;96731.91;;;24.92;100.00
12221;BME280;6173;42.024;23.096;2022-09-03T10:03:32;96736.63;;;25.02;100.00
12221;BME280;6173;42.024;23.096;2022-09-03T10:06:05;96751.44;;;25.16;100.00
12221;BME280;6173;42.024;23.096;2022-09-03T10:08:51;96744.56;;;25.33;100.00
12221;BME280;6173;42.024;23.096;2022-09-03T10:11:20;96741.16;;;25.50;100.00
12221;BME280;6173;42.024;23.096;2022-09-03T10:13:51;96742.75;;;25.51;100.00
12221;BME280;6173;42.024;23.096;2022-09-03T10:16:26;96726.34;;;25.30;100.00
12221;BME280;6173;42.024;23.096;2022-09-03T10:19:04;96739.53;;;25.31;100.00
12221;BME280;6173;42.024;23.096;2022-09-03T10:21:40;96736.09;;;25.45;100.00
12221;BME280;6173;42.024;23.096;2022-09-03T10:24:33;96726.88;;;25.57;100.00
12221;BME280;6173;42.024;23.096;2022-09-03T10:27:06;96729.19;;;25.58;100.00
12221;BME280;6173;42.024;23.096;2022-09-03T10:29:35;96721.44;;;25.57;100.00
12221;BME280;6173;42.024;23.096;2022-09-03T10:32:19;96719.13;;;25.59;100.00
12221;BME280;6173;42.024;23.096;2022-09-03T10:34:59;96727.44;;;26.23;100.00
12221;BME280;6173;42.024;23.096;2022-09-03T10:37:36;96734.03;;;26.40;100.00
12221;BME280;6173;42.024;23.096;2022-09-03T10:40:14;96704.19;;;26.36;100.00
12221;BME280;6173;42.024;23.096;2022-09-03T10:42:59;96723.97;;;26.65;100.00
12221;BME280;6173;42.024;23.096;2022-09-03T10:45:37;96722.41;;;27.03;100.00
12221;BME280;6173;42.024;23.096;2022-09-03T10:51:18;96724.22;;;27.53;97.53
12221;BME280;6173;42.024;23.096;2022-09-03T10:54:12;96719.63;;;27.32;96.43
12221;BME280;6173;42.024;23.096;2022-09-03T10:56:49;96708.31;;;27.48;94.50
12221;BME280;6173;42.024;23.096;2022-09-03T10:59:31;96711.47;;;27.36;92.20
12221;BME280;6173;42.024;23.096;2022-09-03T11:02:14;96711.38;;;27.53;92.40
12221;BME280;6173;42.024;23.096;2022-09-03T11:04:52;96712.97;;;27.47;90.34
12221;BME280;6173;42.024;23.096;2022-09-03T11:07:27;96699.03;;;27.35;89.13
12221;BME280;6173;42.024;23.096;2022-09-03T11:10:08;96721.13;;;28.28;87.39
12221;BME280;6173;42.024;23.096;2022-09-03T11:12:41;96706.56;;;28.52;84.25
12221;BME280;6173;42.024;23.096;2022-09-03T11:15:14;96722.28;;;28.79;82.91
12221;BME280;6173;42.024;23.096;2022-09-03T11:17:47;96713.63;;;28.91;81.16
12221;BME280;6173;42.024;23.096;2022-09-03T11:20:18;96724.97;;;29.24;74.48
12221;BME280;6173;42.024;23.096;2022-09-03T11:22:49;96706.91;;;29.37;72.60
12221;BME280;6173;42.024;23.096;2022-09-03T11:25:19;96723.84;;;29.59;71.00
12221;BME280;6173;42.024;23.096;2022-09-03T11:27:55;96726.03;;;29.33;69.31
12221;BME280;6173;42.024;23.096;2022-09-03T11:30:33;96722.59;;;29.29;69.47
12221;BME280;6173;42.024;23.096;2022-09-03T11:33:07;96718.25;;;28.98;68.94
12221;BME280;6173;42.024;23.096;2022-09-03T11:35:38;96721.78;;;28.95;67.96
12221;BME280;6173;42.024;23.096;2022-09-03T11:38:20;96698.66;;;29.10;67.62
12221;BME280;6173;42.024;23.096;2022-09-03T11:41:00;96710.72;;;29.43;64.12
12221;BME280;6173;42.024;23.096;2022-09-03T11:43:29;96718.13;;;29.46;65.06
12221;BME280;6173;42.024;23.096;2022-09-03T11:46:05;96705.16;;;29.20;65.06
12221;BME280;6173;42.024;23.096;2022-09-03T11:48:39;96711.63;;;29.33;65.88
12221;BME280;6173;42.024;23.096;2022-09-03T11:51:19;96703.16;;;29.58;64.56
12221;BME280;6173;42.024;23.096;2022-09-03T11:53:55;96708.75;;;30.35;63.65
12221;BME280;6173;42.024;23.096;2022-09-03T11:56:22;96708.94;;;30.25;61.36
12221;BME280;6173;42.024;23.096;2022-09-03T11:59:02;96697.91;;;29.74;62.89
12221;BME280;6173;42.024;23.096;2022-09-03T12:01:30;96703.47;;;28.95;63.29
12221;BME280;6173;42.024;23.096;2022-09-03T12:03:59;96702.97;;;28.59;66.83
12221;BME280;6173;42.024;23.096;2022-09-03T12:06:54;96691.47;;;28.41;65.62
12221;BME280;6173;42.024;23.096;2022-09-03T12:09:34;96696.44;;;28.53;65.37
12221;BME280;6173;42.024;23.096;2022-09-03T12:12:17;96698.22;;;28.70;63.91
12221;BME280;6173;42.024;23.096;2022-09-03T12:14:58;96693.56;;;28.67;62.64
12221;BME280;6173;42.024;23.096;2022-09-03T12:17:33;96685.13;;;28.54;63.05
12221;BME280;6173;42.024;23.096;2022-09-03T12:20:11;96666.22;;;28.37;63.55
12221;BME280;6173;42.024;23.096;2022-09-03T12:22:38;96671.19;;;28.45;62.84
12221;BME280;6173;42.024;23.096;2022-09-03T12:25:12;96674.38;;;28.37;60.94
12221;BME280;6173;42.024;23.096;2022-09-03T12:27:41;96665.66;;;28.56;61.35
12221;BME280;6173;42.024;23.096;2022-09-03T12:30:15;96650.63;;;28.37;63.65
12221;BME280;6173;42.024;23.096;2022-09-03T12:32:42;96660.53;;;29.03;59.65
12221;BME280;6173;42.024;23.096;2022-09-03T12:35:15;96669.41;;;31.20;53.89
12221;BME280;6173;42.024;23.096;2022-09-03T12:37:43;96662.28;;;34.05;41.30
12221;BME280;6173;42.024;23.096;2022-09-03T12:40:21;96654.53;;;37.37;34.69
12221;BME280;6173;42.024;23.096;2022-09-03T12:42:51;96653.66;;;39.41;30.51
12221;BME280;6173;42.024;23.096;2022-09-03T12:45:19;96642.13;;;40.63;28.39
12221;BME280;6173;42.024;23.096;2022-09-03T12:47:47;96647.75;;;40.89;28.32
12221;BME280;6173;42.024;23.096;2022-09-03T12:50:15;96654.00;;;41.56;27.00
12221;BME280;6173;42.024;23.096;2022-09-03T12:52:45;96653.09;;;42.02;26.41
12221;BME280;6173;42.024;23.096;2022-09-03T12:55:25;96653.97;;;43.72;24.74
12221;BME280;6173;42.024;23.096;2022-09-03T12:57:59;96645.59;;;44.81;23.25
12221;BME280;6173;42.024;23.096;2022-09-03T13:00:28;96633.72;;;45.52;22.00
12221;BME280;6173;42.024;23.096;2022-09-03T13:02:59;96637.63;;;44.96;22.27
12221;BME280;6173;42.024;23.096;2022-09-03T13:05:31;96633.09;;;46.44;21.36
12221;BME280;6173;42.024;23.096;2022-09-03T13:07:59;96629.78;;;47.72;19.71
12221;BME280;6173;42.024;23.096;2022-09-03T13:10:31;96631.78;;;47.07;20.43
12221;BME280;6173;42.024;23.096;2022-09-03T13:13:06;96625.13;;;46.48;20.98
12221;BME280;6173;42.024;23.096;2022-09-03T13:15:55;96626.44;;;46.90;20.25
12221;BME280;6173;42.024;23.096;2022-09-03T13:18:31;96613.84;;;45.85;20.40